Time;durP1;ratioP1;P1;durP2;ratioP2;P2;SDS_P1;SDS_P2;PMS_P1;PMS_P2;Temp;Humidity;BMP_temperature;BMP_pressure;BME280_temperature;BME280_humidity;BME280_pressure;Samples;Min_cycle;Max_cycle;Signal;HPM_P1;HPM_P2
2021/03/05 00:00:09;;;;;;;0.87;0.87;;;20.00;43.70;;;;;;5096678;27;20479;-73
2021/03/05 00:02:35;;;;;;;0.60;0.60;;;20.00;43.70;;;;;;5098216;27;20470;-72
2021/03/05 00:05:03;;;;;;;0.93;0.87;;;19.90;43.80;;;;;;5075518;28;20521;-72
2021/03/05 00:07:29;;;;;;;0.70;0.63;;;19.90;43.80;;;;;;5073775;28;21004;-73
2021/03/05 00:09:55;;;;;;;1.33;0.80;;;19.90;43.80;;;;;;5073022;28;20485;-73
2021/03/05 00:12:22;;;;;;;1.33;0.93;;;19.90;43.50;;;;;;5070280;28;20499;-73
2021/03/05 00:14:48;;;;;;;1.67;0.77;;;19.90;43.60;;;;;;5076970;28;20484;-72
2021/03/05 00:17:14;;;;;;;0.83;0.80;;;19.90;43.40;;;;;;5071982;28;20477;-73
2021/03/05 00:19:40;;;;;;;0.60;0.60;;;19.90;43.50;;;;;;5071304;28;20473;-73
2021/03/05 00:22:08;;;;;;;3.90;0.60;;;19.90;43.60;;;;;;5082947;28;20478;-72
2021/03/05 00:24:34;;;;;;;0.83;0.83;;;19.90;43.60;;;;;;5073832;28;20501;-72
2021/03/05 00:27:00;;;;;;;0.87;0.73;;;19.90;43.60;;;;;;5071919;28;20481;-72
2021/03/05 00:29:26;;;;;;;1.00;1.00;;;19.90;43.60;;;;;;5065013;28;20476;-72
2021/03/05 00:31:53;;;;;;;0.70;0.60;;;19.90;43.50;;;;;;5085373;28;21001;-72
2021/03/05 00:34:19;;;;;;;0.60;0.60;;;19.90;43.40;;;;;;5073605;27;20990;-72
2021/03/05 00:36:45;;;;;;;1.30;1.13;;;19.90;43.50;;;;;;5091967;27;21482;-72
2021/03/05 00:39:12;;;;;;;4.10;0.70;;;19.90;43.50;;;;;;5069076;28;20489;-72
2021/03/05 00:41:38;;;;;;;0.70;0.60;;;19.90;43.60;;;;;;5075267;28;20514;-72
2021/03/05 00:44:05;;;;;;;0.63;0.63;;;19.90;43.60;;;;;;5071389;28;21036;-72
2021/03/05 00:46:31;;;;;;;0.60;0.60;;;19.90;43.40;;;;;;5072411;27;20544;-71
2021/03/05 00:48:57;;;;;;;0.70;0.70;;;19.80;43.60;;;;;;5091446;27;21008;-72
2021/03/05 00:51:23;;;;;;;0.80;0.70;;;19.80;43.60;;;;;;5074651;28;20489;-71
2021/03/05 00:53:50;;;;;;;1.53;0.73;;;19.90;43.50;;;;;;5072222;28;20483;-73
2021/03/05 00:56:17;;;;;;;0.53;0.53;;;19.80;43.40;;;;;;5073317;28;20566;-73
2021/03/05 00:58:43;;;;;;;0.80;0.80;;;19.80;44.30;;;;;;5070821;28;20863;-73
2021/03/05 01:01:09;;;;;;;1.10;1.00;;;19.80;43.50;;;;;;5071136;28;20497;-73
2021/03/05 01:03:35;;;;;;;1.63;0.63;;;19.90;43.40;;;;;;5072651;28;20818;-73
2021/03/05 01:06:01;;;;;;;1.20;0.83;;;19.90;43.50;;;;;;5058190;27;20495;-73
2021/03/05 01:08:28;;;;;;;1.70;0.80;;;19.90;43.70;;;;;;5102574;27;20973;-73
2021/03/05 01:10:54;;;;;;;0.70;0.70;;;19.90;43.70;;;;;;5071242;28;20486;-73
2021/03/05 01:13:21;;;;;;;0.80;0.80;;;19.80;43.70;;;;;;5072392;28;20474;-73
2021/03/05 01:15:47;;;;;;;0.70;0.70;;;19.80;43.70;;;;;;5093176;27;20483;-72
2021/03/05 01:18:13;;;;;;;1.47;0.67;;;19.80;43.60;;;;;;5070446;28;20496;-72
2021/03/05 01:20:40;;;;;;;1.50;0.60;;;19.80;43.30;;;;;;5072413;28;20496;-72
2021/03/05 01:23:06;;;;;;;0.70;0.70;;;19.80;43.30;;;;;;5069711;28;20486;-73
2021/03/05 01:25:33;;;;;;;1.83;0.80;;;19.80;43.40;;;;;;5073186;28;20573;-73
2021/03/05 01:27:59;;;;;;;0.63;0.63;;;19.80;43.50;;;;;;5068876;28;20504;-72
2021/03/05 01:30:27;;;;;;;0.60;0.60;;;19.90;43.60;;;;;;5071084;28;20517;-73
2021/03/05 01:32:53;;;;;;;4.33;0.80;;;19.90;43.60;;;;;;5067827;28;20484;-73
2021/03/05 01:35:20;;;;;;;2.30;0.87;;;19.80;43.40;;;;;;5073656;28;20480;-72
2021/03/05 01:37:47;;;;;;;0.97;0.77;;;19.80;43.30;;;;;;5078074;28;20469;-72
2021/03/05 01:40:15;;;;;;;1.03;0.63;;;19.80;43.30;;;;;;5071350;28;20485;-72
2021/03/05 01:42:41;;;;;;;0.83;0.80;;;19.80;43.40;;;;;;5062946;28;20504;-73
2021/03/05 01:45:09;;;;;;;1.07;0.50;;;19.80;43.30;;;;;;5081832;28;20485;-73
2021/03/05 01:47:36;;;;;;;1.23;0.60;;;19.80;43.30;;;;;;5071517;28;21016;-73
2021/03/05 01:50:03;;;;;;;0.70;0.70;;;19.80;43.40;;;;;;5069560;28;21084;-73
2021/03/05 01:52:29;;;;;;;1.07;1.07;;;19.80;43.50;;;;;;5070829;28;20542;-73
2021/03/05 01:54:55;;;;;;;0.70;0.70;;;19.80;43.40;;;;;;5076248;28;20484;-72
2021/03/05 01:57:21;;;;;;;0.90;0.80;;;19.80;43.40;;;;;;5077844;28;21401;-72
2021/03/05 01:59:48;;;;;;;0.83;0.60;;;19.80;43.50;;;;;;5072874;28;20491;-73
2021/03/05 02:02:14;;;;;;;0.50;0.50;;;19.80;43.50;;;;;;5069320;28;20478;-72
2021/03/05 02:04:41;;;;;;;0.90;0.80;;;19.80;43.30;;;;;;5074211;28;20484;-72
2021/03/05 02:07:08;;;;;;;0.80;0.80;;;19.80;43.20;;;;;;5067564;28;21004;-72
2021/03/05 02:09:34;;;;;;;1.63;1.00;;;19.80;43.10;;;;;;5072820;28;20473;-73
2021/03/05 02:12:00;;;;;;;0.70;0.70;;;19.80;44.10;;;;;;5069996;28;20480;-72
2021/03/05 02:14:26;;;;;;;1.93;0.67;;;19.80;43.40;;;;;;5072434;28;20530;-72
2021/03/05 02:16:56;;;;;;;1.47;0.87;;;19.80;43.30;;;;;;5062206;28;20594;-74
2021/03/05 02:20:12;;;;;;;1.57;0.60;;;19.80;43.30;;;;;;5081621;28;20477;-73
2021/03/05 02:23:10;;;;;;;0.80;0.80;;;19.90;43.20;;;;;;5072460;28;20826;-74
2021/03/05 02:26:05;;;;;;;0.70;0.70;;;19.80;43.40;;;;;;5026843;28;20473;-73
2021/03/05 02:28:41;;;;;;;2.10;0.80;;;19.80;43.40;;;;;;5072255;28;20472;-72
2021/03/05 02:31:19;;;;;;;1.97;0.80;;;19.80;43.30;;;;;;5067641;28;20483;-73
2021/03/05 02:33:48;;;;;;;0.57;0.57;;;19.70;43.40;;;;;;5073954;28;20533;-73
2021/03/05 02:36:17;;;;;;;1.30;0.90;;;19.70;43.40;;;;;;5068474;28;21199;-73
2021/03/05 02:38:47;;;;;;;1.17;0.60;;;19.70;43.30;;;;;;5066822;28;20470;-73
2021/03/05 02:41:13;;;;;;;0.83;0.60;;;19.70;43.30;;;;;;5071027;28;20481;-72
2021/03/05 02:43:40;;;;;;;0.70;0.70;;;19.80;43.30;;;;;;5067376;28;20489;-73
2021/03/05 02:46:06;;;;;;;0.97;0.90;;;19.80;43.40;;;;;;5070458;28;20481;-73
2021/03/05 02:48:36;;;;;;;2.10;0.70;;;19.80;43.50;;;;;;5071721;28;20983;-73
2021/03/05 02:51:04;;;;;;;1.33;0.70;;;19.70;43.50;;;;;;5070607;28;20489;-73
2021/03/05 02:53:30;;;;;;;1.47;0.83;;;19.70;43.60;;;;;;5068724;28;20489;-73
2021/03/05 02:55:58;;;;;;;1.60;0.60;;;19.70;43.70;;;;;;5069746;28;20480;-73
2021/03/05 02:58:25;;;;;;;0.87;0.87;;;19.80;43.90;;;;;;5069049;28;20965;-73
2021/03/05 03:00:51;;;;;;;1.03;0.63;;;19.80;43.90;;;;;;5067759;28;20493;-74
2021/03/05 03:03:17;;;;;;;2.77;1.07;;;19.80;44.10;;;;;;5072798;28;20492;-73
2021/03/05 03:05:44;;;;;;;0.50;0.50;;;19.80;44.00;;;;;;5069340;28;21137;-73
2021/03/05 03:08:10;;;;;;;1.63;0.60;;;19.80;44.00;;;;;;5068440;28;21643;-73
2021/03/05 03:10:37;;;;;;;2.10;0.53;;;19.80;43.80;;;;;;5090759;28;20474;-72
2021/03/05 03:13:03;;;;;;;2.20;0.70;;;19.80;43.30;;;;;;5068503;28;20487;-73
2021/03/05 03:15:30;;;;;;;1.50;0.60;;;19.80;43.40;;;;;;5064628;28;20543;-73
2021/03/05 03:17:57;;;;;;;0.70;0.70;;;19.70;43.30;;;;;;5066376;28;20486;-73
2021/03/05 03:20:23;;;;;;;0.53;0.50;;;19.70;43.50;;;;;;5066959;28;20481;-73
2021/03/05 03:22:50;;;;;;;1.23;0.70;;;19.70;43.10;;;;;;5068030;28;20489;-73
2021/03/05 03:25:16;;;;;;;1.50;0.60;;;19.70;43.20;;;;;;5065285;28;20491;-73
2021/03/05 03:27:43;;;;;;;0.60;0.60;;;19.70;43.60;;;;;;5066753;28;20468;-72
2021/03/05 03:30:10;;;;;;;0.67;0.60;;;19.70;43.30;;;;;;5068170;28;20538;-73
2021/03/05 03:32:37;;;;;;;1.10;0.67;;;19.60;43.40;;;;;;5067248;28;20487;-72
2021/03/05 03:35:04;;;;;;;0.70;0.63;;;19.70;43.50;;;;;;5089629;27;20485;-73
2021/03/05 03:37:30;;;;;;;0.97;0.80;;;19.60;43.60;;;;;;5070784;28;20493;-73
2021/03/05 03:39:57;;;;;;;0.70;0.70;;;19.60;43.40;;;;;;5056386;28;20534;-71
2021/03/05 03:42:23;;;;;;;0.60;0.60;;;19.60;43.20;;;;;;5102431;27;20476;-73
2021/03/05 03:44:49;;;;;;;1.13;0.73;;;19.70;43.40;;;;;;5070236;28;20481;-72
2021/03/05 03:47:15;;;;;;;0.87;0.60;;;19.60;43.40;;;;;;5070366;28;20476;-72
2021/03/05 03:49:44;;;;;;;0.67;0.67;;;19.70;43.50;;;;;;5069781;28;20477;-72
2021/03/05 03:52:10;;;;;;;1.17;0.67;;;19.70;43.40;;;;;;5075207;27;20486;-73
2021/03/05 03:54:37;;;;;;;1.07;0.90;;;19.60;43.40;;;;;;5089152;27;20484;-72
2021/03/05 03:57:05;;;;;;;1.00;0.90;;;19.60;43.20;;;;;;5069344;28;20501;-73
2021/03/05 03:59:31;;;;;;;0.77;0.77;;;19.70;43.20;;;;;;5072889;28;20465;-73
2021/03/05 04:01:58;;;;;;;0.80;0.70;;;19.70;43.20;;;;;;5069534;28;20489;-73
2021/03/05 04:04:24;;;;;;;0.63;0.63;;;19.70;43.20;;;;;;5067838;28;20902;-73
2021/03/05 04:06:52;;;;;;;0.67;0.67;;;19.70;43.10;;;;;;5083265;28;20547;-72
2021/03/05 04:09:18;;;;;;;0.57;0.57;;;19.70;43.00;;;;;;5070496;28;20496;-72
2021/03/05 04:11:44;;;;;;;1.03;0.70;;;19.80;42.50;;;;;;5071469;28;20507;-73
2021/03/05 04:14:11;;;;;;;1.40;0.60;;;19.80;42.50;;;;;;5069367;28;20493;-72
2021/03/05 04:16:37;;;;;;;0.60;0.60;;;19.80;42.40;;;;;;5070403;28;20480;-73
2021/03/05 04:19:04;;;;;;;0.70;0.67;;;19.90;42.20;;;;;;5069676;28;21167;-73
2021/03/05 04:21:33;;;;;;;1.10;1.00;;;19.90;42.20;;;;;;5070717;28;20499;-73
2021/03/05 04:23:59;;;;;;;2.10;0.73;;;19.90;42.00;;;;;;5084707;27;20494;-73
2021/03/05 04:26:25;;;;;;;0.70;0.70;;;19.90;42.00;;;;;;5076751;27;21573;-73
2021/03/05 04:28:51;;;;;;;1.93;0.90;;;19.90;42.10;;;;;;5069867;28;21000;-73
2021/03/05 04:31:18;;;;;;;0.80;0.80;;;19.90;42.20;;;;;;5066076;28;20477;-72
2021/03/05 04:33:45;;;;;;;0.60;0.60;;;20.00;42.20;;;;;;5075587;28;20476;-73
2021/03/05 04:36:11;;;;;;;0.80;0.70;;;20.00;42.10;;;;;;5068960;28;20482;-73
2021/03/05 04:38:37;;;;;;;1.67;1.57;;;20.00;42.10;;;;;;5068134;28;20502;-74
2021/03/05 04:41:03;;;;;;;0.70;0.70;;;20.10;42.10;;;;;;5073678;28;20485;-73
2021/03/05 04:43:29;;;;;;;1.07;0.70;;;20.10;42.00;;;;;;5070674;28;20485;-73
2021/03/05 04:45:56;;;;;;;0.80;0.80;;;20.10;41.90;;;;;;5069184;28;20481;-74
2021/03/05 04:48:23;;;;;;;0.93;0.93;;;20.10;41.90;;;;;;5093580;27;20495;-73
2021/03/05 04:50:49;;;;;;;1.83;0.90;;;20.10;42.70;;;;;;5069334;28;20497;-73
2021/03/05 04:53:15;;;;;;;1.40;0.90;;;20.10;41.90;;;;;;5067279;28;20477;-74
2021/03/05 04:55:42;;;;;;;2.63;0.90;;;20.00;41.80;;;;;;5071810;28;20489;-73
2021/03/05 04:58:08;;;;;;;1.17;1.07;;;20.10;42.00;;;;;;5069122;28;20505;-73
2021/03/05 05:00:34;;;;;;;0.70;0.70;;;20.10;41.80;;;;;;5068861;28;20879;-74
2021/03/05 05:03:00;;;;;;;1.00;1.00;;;20.10;41.90;;;;;;5069985;28;20489;-73
2021/03/05 05:05:27;;;;;;;1.00;0.90;;;20.10;41.80;;;;;;5069543;28;20473;-73
2021/03/05 05:07:55;;;;;;;0.90;0.90;;;20.10;41.80;;;;;;5070330;28;20493;-74
2021/03/05 05:10:21;;;;;;;0.90;0.90;;;20.10;41.80;;;;;;5058518;28;20476;-73
2021/03/05 05:12:47;;;;;;;0.60;0.60;;;20.00;41.80;;;;;;5070641;28;21095;-73
2021/03/05 05:15:13;;;;;;;0.73;0.73;;;20.00;41.80;;;;;;5066275;28;20493;-73
2021/03/05 05:17:40;;;;;;;1.40;1.03;;;20.10;42.30;;;;;;5070404;28;20473;-73
2021/03/05 05:20:07;;;;;;;0.90;0.90;;;20.10;41.90;;;;;;5069299;27;21040;-74
2021/03/05 05:22:35;;;;;;;1.00;0.63;;;20.10;41.70;;;;;;5090407;27;20501;-74
2021/03/05 05:25:02;;;;;;;0.93;0.93;;;20.10;41.80;;;;;;5068296;28;20473;-73
2021/03/05 05:27:28;;;;;;;1.07;0.80;;;20.20;41.80;;;;;;5069293;28;20531;-73
2021/03/05 05:29:54;;;;;;;0.70;0.70;;;20.20;41.70;;;;;;5068674;28;21771;-73
2021/03/05 05:32:20;;;;;;;0.87;0.60;;;20.20;41.60;;;;;;5070285;28;20481;-73
2021/03/05 05:34:47;;;;;;;2.50;0.90;;;20.30;41.70;;;;;;5073069;28;20469;-73
2021/03/05 05:37:13;;;;;;;0.90;0.90;;;20.30;41.50;;;;;;5068865;28;20481;-73
2021/03/05 05:39:40;;;;;;;1.17;0.83;;;20.30;41.50;;;;;;5068342;28;20465;-73
2021/03/05 05:42:06;;;;;;;0.70;0.70;;;20.30;41.40;;;;;;5069281;28;20500;-73
2021/03/05 05:44:33;;;;;;;1.43;0.97;;;20.30;41.40;;;;;;5073321;28;20477;-73
2021/03/05 05:46:59;;;;;;;0.77;0.77;;;20.30;41.40;;;;;;5067840;28;20488;-74
2021/03/05 05:49:25;;;;;;;1.57;1.20;;;20.30;41.40;;;;;;5067652;28;20473;-74
2021/03/05 05:51:51;;;;;;;0.80;0.80;;;20.30;41.40;;;;;;5067641;28;20532;-73
2021/03/05 05:54:20;;;;;;;0.97;0.87;;;20.30;41.40;;;;;;5067121;28;20537;-73
2021/03/05 05:56:47;;;;;;;1.30;1.20;;;20.20;41.40;;;;;;5068669;28;20984;-73
2021/03/05 05:59:13;;;;;;;6.83;0.83;;;20.20;41.40;;;;;;5067804;28;21339;-73
2021/03/05 06:01:40;;;;;;;0.87;0.87;;;20.20;41.30;;;;;;5067948;28;20477;-73
2021/03/05 06:04:07;;;;;;;1.03;0.73;;;20.20;41.30;;;;;;5066578;27;20878;-73
2021/03/05 06:06:33;;;;;;;0.87;0.80;;;20.30;41.30;;;;;;5090826;27;20495;-73
2021/03/05 06:09:00;;;;;;;1.47;1.10;;;20.20;41.30;;;;;;5088432;27;21011;-72
2021/03/05 06:11:32;;;;;;;1.47;0.83;;;20.20;41.20;;;;;;5069500;28;20989;-73
2021/03/05 06:14:01;;;;;;;1.13;0.70;;;20.20;41.40;;;;;;5075463;27;20494;-73
2021/03/05 06:16:27;;;;;;;3.00;1.07;;;20.30;41.40;;;;;;5081913;27;20485;-74
2021/03/05 06:18:54;;;;;;;1.10;0.80;;;20.30;41.20;;;;;;5068000;28;20490;-73
2021/03/05 06:21:34;;;;;;;0.97;0.90;;;20.30;41.20;;;;;;5066862;28;20466;-73
2021/03/05 06:24:02;;;;;;;2.60;0.90;;;20.40;41.10;;;;;;5067204;28;20480;-72
2021/03/05 06:26:29;;;;;;;0.80;0.80;;;20.40;41.10;;;;;;5066611;28;20477;-73
2021/03/05 06:29:03;;;;;;;2.07;0.93;;;20.40;41.10;;;;;;5070342;28;20482;-72
2021/03/05 06:31:29;;;;;;;1.30;1.03;;;20.30;41.10;;;;;;5071701;28;20495;-73
2021/03/05 06:33:58;;;;;;;1.43;1.10;;;20.30;41.10;;;;;;5070369;28;20492;-73
2021/03/05 06:36:25;;;;;;;1.03;0.93;;;20.30;41.10;;;;;;5067082;28;20863;-73
2021/03/05 06:38:51;;;;;;;1.03;0.90;;;20.30;41.10;;;;;;5070024;28;20481;-73
2021/03/05 06:41:21;;;;;;;1.80;1.27;;;20.30;41.20;;;;;;5069849;28;20506;-73
2021/03/05 06:43:48;;;;;;;1.20;0.80;;;20.30;41.10;;;;;;5068652;28;20491;-73
2021/03/05 06:46:29;;;;;;;2.07;0.87;;;20.30;41.10;;;;;;5067161;28;21143;-73
2021/03/05 06:48:55;;;;;;;1.00;1.00;;;20.30;41.10;;;;;;5063597;28;20527;-73
2021/03/05 06:51:21;;;;;;;1.10;1.10;;;20.30;41.10;;;;;;5068275;28;20466;-73
2021/03/05 06:53:47;;;;;;;0.80;0.80;;;20.30;41.10;;;;;;5061918;28;20678;-74
2021/03/05 06:56:25;;;;;;;1.13;1.00;;;20.30;41.10;;;;;;5095641;28;20476;-73
2021/03/05 06:59:02;;;;;;;3.30;1.13;;;20.30;41.10;;;;;;5059593;28;20477;-72
2021/03/05 07:01:29;;;;;;;1.70;1.13;;;20.30;41.20;;;;;;5068603;28;20545;-73
2021/03/05 07:04:09;;;;;;;1.20;0.90;;;20.30;41.10;;;;;;5073959;28;20482;-71
2021/03/05 07:06:35;;;;;;;1.07;1.07;;;20.30;41.10;;;;;;5069265;28;21373;-72
2021/03/05 07:09:02;;;;;;;0.90;0.90;;;20.30;41.10;;;;;;5075014;28;20480;-73
2021/03/05 07:11:36;;;;;;;1.63;1.43;;;20.30;41.00;;;;;;5085107;28;20483;-72
2021/03/05 07:14:02;;;;;;;2.03;1.40;;;20.30;41.10;;;;;;5067104;28;20879;-72
2021/03/05 07:16:39;;;;;;;1.30;1.30;;;20.30;41.10;;;;;;5068384;28;20491;-72
2021/03/05 07:19:05;;;;;;;0.90;0.90;;;20.30;41.90;;;;;;5093060;27;20479;-72
2021/03/05 07:21:31;;;;;;;0.87;0.80;;;20.30;41.10;;;;;;5058691;27;20491;-72
2021/03/05 07:23:57;;;;;;;0.83;0.83;;;20.20;41.10;;;;;;5096630;27;20486;-72
2021/03/05 07:26:24;;;;;;;2.17;1.10;;;20.20;41.10;;;;;;5069283;28;20492;-72
2021/03/05 07:28:50;;;;;;;0.90;0.90;;;20.20;41.20;;;;;;5070140;28;21639;-72
2021/03/05 07:31:17;;;;;;;1.10;1.00;;;20.20;41.20;;;;;;5089522;27;20459;-72
2021/03/05 07:33:44;;;;;;;0.90;0.90;;;20.20;41.30;;;;;;5079303;27;20483;-72
2021/03/05 07:36:11;;;;;;;0.83;0.80;;;20.30;41.30;;;;;;5070603;27;20495;-72
2021/03/05 07:38:39;;;;;;;1.60;0.97;;;20.30;41.30;;;;;;5091242;27;20492;-71
2021/03/05 07:41:05;;;;;;;0.90;0.87;;;20.20;41.20;;;;;;5072350;28;20488;-72
2021/03/05 07:43:32;;;;;;;1.00;1.00;;;20.20;41.10;;;;;;5070707;28;20504;-71
2021/03/05 07:45:58;;;;;;;0.83;0.60;;;20.20;41.20;;;;;;5068990;28;20488;-71
2021/03/05 07:48:24;;;;;;;1.53;0.93;;;20.20;41.30;;;;;;5071039;28;20499;-72
2021/03/05 07:50:51;;;;;;;1.30;1.20;;;20.20;41.20;;;;;;5068237;28;21482;-72
2021/03/05 07:53:18;;;;;;;1.33;1.23;;;20.10;41.20;;;;;;5070550;28;21142;-71
2021/03/05 07:55:44;;;;;;;0.87;0.87;;;20.10;41.20;;;;;;5090052;27;20689;-72
2021/03/05 07:58:10;;;;;;;1.37;1.27;;;20.10;41.20;;;;;;5062494;27;20488;-72
2021/03/05 08:00:48;;;;;;;0.83;0.83;;;20.10;41.20;;;;;;5092823;27;20505;-72
2021/03/05 08:03:15;;;;;;;3.13;1.00;;;20.10;41.40;;;;;;5097371;27;20712;-72
2021/03/05 08:05:45;;;;;;;1.00;0.90;;;20.20;41.30;;;;;;5093308;27;22397;-72
2021/03/05 08:08:20;;;;;;;1.10;1.00;;;20.20;41.30;;;;;;5075712;28;20492;-72
2021/03/05 08:10:52;;;;;;;0.80;0.80;;;20.20;41.10;;;;;;5071077;28;20482;-72
2021/03/05 08:13:48;;;;;;;1.03;1.03;;;20.30;41.10;;;;;;5070012;28;20492;-71
2021/03/05 08:16:39;;;;;;;5.10;1.00;;;20.20;41.00;;;;;;5068704;28;20477;-72
2021/03/05 08:19:46;;;;;;;1.83;1.03;;;20.20;41.10;;;;;;5070162;28;20512;-72
2021/03/05 08:22:13;;;;;;;1.27;1.20;;;20.20;41.10;;;;;;5068601;28;20464;-71
2021/03/05 08:24:41;;;;;;;1.20;1.00;;;20.10;41.30;;;;;;5069408;28;21008;-72
2021/03/05 08:27:09;;;;;;;1.00;1.00;;;20.10;41.30;;;;;;5068942;28;20494;-71
2021/03/05 08:29:53;;;;;;;0.97;0.87;;;20.20;41.40;;;;;;5070481;28;20481;-71
2021/03/05 08:32:51;;;;;;;1.13;1.00;;;20.20;41.10;;;;;;5071314;28;21679;-72
2021/03/05 08:35:18;;;;;;;1.20;1.20;;;20.30;41.10;;;;;;5070524;28;20533;-72
2021/03/05 08:37:45;;;;;;;2.13;0.83;;;20.30;41.20;;;;;;5084960;27;20468;-71
2021/03/05 08:40:33;;;;;;;1.97;1.43;;;20.20;41.20;;;;;;5077440;28;20538;-72
2021/03/05 08:43:18;;;;;;;0.77;0.77;;;20.20;41.20;;;;;;5071459;28;20479;-72
2021/03/05 08:45:45;;;;;;;2.00;0.90;;;20.20;41.40;;;;;;5067994;28;20497;-72
2021/03/05 08:48:12;;;;;;;1.07;0.97;;;20.10;41.30;;;;;;5068991;28;20496;-72
2021/03/05 08:50:38;;;;;;;1.87;1.50;;;20.10;41.40;;;;;;5070618;28;20588;-71
2021/03/05 08:53:05;;;;;;;1.00;1.00;;;20.10;41.50;;;;;;5068329;27;20491;-72
2021/03/05 08:55:32;;;;;;;1.00;1.00;;;20.10;41.50;;;;;;5092708;27;21145;-72
2021/03/05 08:57:59;;;;;;;1.00;1.00;;;20.10;41.50;;;;;;5069417;28;20479;-71
2021/03/05 09:00:28;;;;;;;1.20;1.00;;;20.10;41.70;;;;;;5068382;28;21163;-72
2021/03/05 09:03:04;;;;;;;0.80;0.80;;;20.10;41.60;;;;;;5059047;28;21143;-72
2021/03/05 09:05:32;;;;;;;2.40;1.50;;;20.10;41.60;;;;;;5067609;28;20499;-71
2021/03/05 09:07:58;;;;;;;2.10;1.13;;;20.10;41.50;;;;;;5068285;28;20516;-72
2021/03/05 09:10:37;;;;;;;1.33;0.80;;;20.10;41.50;;;;;;5055029;27;20498;-72
2021/03/05 09:13:04;;;;;;;0.57;0.57;;;20.10;41.50;;;;;;5090221;27;20476;-71
2021/03/05 09:15:38;;;;;;;0.90;0.90;;;20.10;41.50;;;;;;5069719;28;20484;-72
2021/03/05 09:18:05;;;;;;;1.40;0.80;;;20.10;41.50;;;;;;5068418;28;21521;-72
2021/03/05 09:20:35;;;;;;;0.93;0.93;;;20.10;41.50;;;;;;5067525;28;20482;-71
2021/03/05 09:23:26;;;;;;;1.03;1.03;;;20.10;41.50;;;;;;5069721;28;21024;-73
2021/03/05 09:25:53;;;;;;;1.93;1.03;;;20.10;41.50;;;;;;5070325;28;20541;-72
2021/03/05 09:28:21;;;;;;;1.03;0.90;;;20.00;41.50;;;;;;5067544;28;20465;-71
2021/03/05 09:30:48;;;;;;;0.80;0.80;;;20.00;41.50;;;;;;5072156;27;20498;-73
2021/03/05 09:33:14;;;;;;;1.03;1.03;;;20.00;41.60;;;;;;5090444;27;20498;-73
2021/03/05 09:35:40;;;;;;;1.03;0.70;;;20.00;41.60;;;;;;5088517;27;20516;-72
2021/03/05 09:38:07;;;;;;;1.07;0.97;;;20.00;41.50;;;;;;5068354;28;20477;-72
2021/03/05 09:40:34;;;;;;;2.37;2.10;;;20.00;41.50;;;;;;5068848;28;20481;-72
2021/03/05 09:43:00;;;;;;;0.77;0.77;;;20.00;41.50;;;;;;5071832;27;20485;-73
2021/03/05 09:45:38;;;;;;;1.03;0.73;;;20.00;41.60;;;;;;5068442;28;20469;-72
2021/03/05 09:48:06;;;;;;;1.30;0.97;;;20.00;41.70;;;;;;5069153;28;20469;-72
2021/03/05 09:50:32;;;;;;;1.00;0.90;;;20.00;41.70;;;;;;5065902;28;20504;-72
2021/03/05 09:53:08;;;;;;;0.90;0.90;;;20.10;41.80;;;;;;5065309;28;20535;-72
2021/03/05 09:55:35;;;;;;;1.27;1.07;;;20.10;41.50;;;;;;5065441;28;20553;-72
2021/03/05 09:58:09;;;;;;;1.90;0.70;;;20.10;41.40;;;;;;5066123;28;20539;-73
2021/03/05 10:00:36;;;;;;;0.90;0.90;;;20.10;42.20;;;;;;5068374;28;21233;-72
2021/03/05 10:03:06;;;;;;;0.80;0.80;;;20.20;41.50;;;;;;5064883;28;20491;-72
2021/03/05 10:05:33;;;;;;;2.70;0.90;;;20.20;41.50;;;;;;5079345;28;20546;-72
2021/03/05 10:07:59;;;;;;;1.13;0.70;;;20.20;41.30;;;;;;5069472;28;20881;-72
2021/03/05 10:10:26;;;;;;;0.67;0.67;;;20.20;41.20;;;;;;5069260;28;20546;-72
2021/03/05 10:12:52;;;;;;;0.80;0.80;;;20.10;41.30;;;;;;5066902;28;20481;-71
2021/03/05 10:15:19;;;;;;;0.60;0.60;;;20.10;41.40;;;;;;5065829;28;20964;-72
2021/03/05 10:17:46;;;;;;;1.60;1.17;;;20.10;41.40;;;;;;5066987;28;20549;-72
2021/03/05 10:20:12;;;;;;;1.50;1.00;;;20.00;41.40;;;;;;5067047;28;20487;-72
2021/03/05 10:22:38;;;;;;;0.90;0.90;;;20.00;41.40;;;;;;5064681;28;20473;-72
2021/03/05 10:25:06;;;;;;;1.83;1.20;;;20.00;41.50;;;;;;5077441;27;20484;-73
2021/03/05 10:27:39;;;;;;;0.80;0.80;;;20.00;41.50;;;;;;5077256;28;20511;-73
2021/03/05 10:30:07;;;;;;;0.70;0.70;;;20.00;41.50;;;;;;5069350;28;20853;-72
2021/03/05 10:32:36;;;;;;;0.93;0.93;;;20.00;41.70;;;;;;5069477;28;20839;-72
2021/03/05 10:35:05;;;;;;;0.70;0.70;;;20.00;41.70;;;;;;5069898;28;20482;-72
2021/03/05 10:37:31;;;;;;;1.87;0.80;;;20.00;41.70;;;;;;5066882;28;20477;-72
2021/03/05 10:39:57;;;;;;;0.80;0.80;;;20.00;41.30;;;;;;5065650;28;20480;-72
2021/03/05 10:42:24;;;;;;;1.93;0.90;;;20.00;41.70;;;;;;5095831;27;20488;-72
2021/03/05 10:44:51;;;;;;;0.70;0.70;;;20.10;41.60;;;;;;5069319;28;20517;-72
2021/03/05 10:47:18;;;;;;;1.00;0.70;;;20.10;41.60;;;;;;5066533;28;20489;-72
2021/03/05 10:49:44;;;;;;;0.80;0.80;;;20.10;41.70;;;;;;5067126;28;21594;-72
2021/03/05 10:52:12;;;;;;;0.57;0.57;;;20.10;41.60;;;;;;5060397;28;20479;-73
2021/03/05 10:54:38;;;;;;;0.77;0.77;;;20.00;41.60;;;;;;5097304;27;20862;-72
2021/03/05 10:57:05;;;;;;;1.03;0.93;;;20.00;41.70;;;;;;5067202;28;20478;-72
2021/03/05 10:59:31;;;;;;;0.60;0.60;;;20.00;41.90;;;;;;5067138;28;20489;-72
2021/03/05 11:01:57;;;;;;;1.20;1.10;;;20.00;41.70;;;;;;5068783;28;20623;-72
2021/03/05 11:04:24;;;;;;;1.10;1.03;;;20.00;41.60;;;;;;5067308;28;20547;-72
2021/03/05 11:06:52;;;;;;;0.60;0.60;;;20.00;41.60;;;;;;5067140;28;20489;-72
2021/03/05 11:09:19;;;;;;;0.70;0.60;;;20.00;41.60;;;;;;5064301;28;20485;-72
2021/03/05 11:11:45;;;;;;;1.20;1.20;;;20.00;41.80;;;;;;5068248;28;21024;-72
2021/03/05 11:14:12;;;;;;;2.77;1.10;;;20.00;41.70;;;;;;5067922;28;20504;-72
2021/03/05 11:16:38;;;;;;;0.93;0.70;;;20.00;41.60;;;;;;5063481;28;20915;-72
2021/03/05 11:19:04;;;;;;;0.60;0.60;;;20.00;41.70;;;;;;5081801;28;21492;-72
2021/03/05 11:21:31;;;;;;;1.10;1.10;;;20.00;41.80;;;;;;5075892;28;20492;-72
2021/03/05 11:23:57;;;;;;;4.47;0.90;;;19.90;41.70;;;;;;5067525;28;20476;-72
2021/03/05 11:26:24;;;;;;;0.80;0.80;;;19.90;41.70;;;;;;5067170;28;20482;-72
2021/03/05 11:28:50;;;;;;;0.73;0.73;;;19.90;41.70;;;;;;5066140;28;20917;-72
2021/03/05 11:31:16;;;;;;;0.93;0.70;;;20.00;41.70;;;;;;5090236;28;20470;-72
2021/03/05 11:33:44;;;;;;;0.70;0.60;;;20.00;41.80;;;;;;5068066;28;20553;-72
2021/03/05 11:36:11;;;;;;;1.80;0.77;;;20.00;41.60;;;;;;5066589;28;20507;-72
2021/03/05 11:38:37;;;;;;;1.00;1.00;;;20.10;41.70;;;;;;5067479;28;20469;-72
2021/03/05 11:41:04;;;;;;;0.67;0.67;;;20.10;41.60;;;;;;5066891;28;20541;-72
2021/03/05 11:43:31;;;;;;;1.10;1.00;;;20.10;41.60;;;;;;5068666;28;20550;-73
2021/03/05 11:45:57;;;;;;;0.97;0.60;;;20.10;41.50;;;;;;5055074;28;21079;-73
2021/03/05 11:48:23;;;;;;;1.30;0.60;;;20.20;41.60;;;;;;5092471;28;20489;-72
2021/03/05 11:50:50;;;;;;;0.63;0.63;;;20.20;41.60;;;;;;5069508;28;20501;-72
2021/03/05 11:53:16;;;;;;;0.70;0.70;;;20.20;41.60;;;;;;5064279;28;20477;-72
2021/03/05 11:55:42;;;;;;;0.63;0.63;;;20.20;41.60;;;;;;5066106;28;20882;-72
2021/03/05 11:58:08;;;;;;;0.70;0.70;;;20.10;41.50;;;;;;5066723;28;21107;-73
2021/03/05 12:00:35;;;;;;;1.17;0.70;;;20.10;41.50;;;;;;5091724;28;20471;-73
2021/03/05 12:03:02;;;;;;;1.00;0.80;;;20.10;41.60;;;;;;5068024;28;20518;-72
2021/03/05 12:05:28;;;;;;;0.50;0.50;;;20.10;42.10;;;;;;5072110;28;20474;-73
2021/03/05 12:07:54;;;;;;;0.77;0.70;;;20.00;41.80;;;;;;5069233;28;20489;-72
2021/03/05 12:10:20;;;;;;;0.60;0.60;;;20.00;41.70;;;;;;5068522;28;20472;-73
2021/03/05 12:12:46;;;;;;;0.70;0.70;;;20.00;42.50;;;;;;5071384;28;20481;-72
2021/03/05 12:15:14;;;;;;;0.80;0.80;;;20.00;41.90;;;;;;5068400;28;20496;-72
2021/03/05 12:17:41;;;;;;;0.60;0.60;;;20.00;42.00;;;;;;5072031;28;20472;-72
2021/03/05 12:20:08;;;;;;;0.80;0.70;;;20.00;41.80;;;;;;5085521;27;21477;-74
2021/03/05 12:22:34;;;;;;;0.50;0.50;;;20.00;41.90;;;;;;5073418;27;20536;-73
2021/03/05 12:25:00;;;;;;;0.80;0.50;;;20.00;41.80;;;;;;5092557;27;20482;-73
2021/03/05 12:27:26;;;;;;;0.57;0.57;;;20.00;41.70;;;;;;5069433;27;21025;-72
2021/03/05 12:29:52;;;;;;;0.50;0.50;;;20.10;41.70;;;;;;5090102;27;21121;-73
2021/03/05 12:32:19;;;;;;;0.80;0.50;;;20.10;41.60;;;;;;5095914;27;20552;-73
2021/03/05 12:34:46;;;;;;;0.83;0.63;;;20.00;41.70;;;;;;5070430;28;20550;-72
2021/03/05 12:37:12;;;;;;;1.70;0.50;;;20.00;41.80;;;;;;5068562;28;20487;-72
2021/03/05 12:39:38;;;;;;;0.70;0.70;;;20.00;41.90;;;;;;5071535;28;20492;-73
2021/03/05 12:42:05;;;;;;;0.50;0.50;;;20.00;41.80;;;;;;5093528;27;20490;-72
2021/03/05 12:44:31;;;;;;;1.70;0.70;;;19.90;41.80;;;;;;5068372;28;20492;-72
2021/03/05 12:46:58;;;;;;;0.60;0.60;;;19.90;41.90;;;;;;5070623;28;20485;-73
2021/03/05 12:49:24;;;;;;;0.50;0.50;;;19.90;41.90;;;;;;5071564;27;20498;-72
2021/03/05 12:51:51;;;;;;;0.87;0.80;;;19.90;42.00;;;;;;5088488;27;20491;-73